Colorado Star — 9HA2189 — position and weather

sailwx.info

Track history (hours):
 
Tides and Currents Weather Stations Pressure Air Temp Water Temp Dewpoint Dewpoint Depression Visibility Wind Speed Wind Dir Waves Ship Positions

Colorado Star

Last reported at 2017-Apr-29 14:36 UTC. Time now 2017-Apr-29 17:19 UTC.
Position N 51°55' E 003°31'.

Length 128 m; draft 6.2 m.

Type: Ship. MMSI: 248127000.

Date/timePositionNaut miles runAvg speedWind from/ knotsBaromVisibWave heightAir tempDewpointWater temp
2017-Apr-29 14:36N 51°55' E 003°31'0 0.1
2017-Apr-29 13:03N 51°55' E 003°31'0 0.1
2017-Apr-29 13:00N 51°55' E 003°31'0 0.0
2017-Apr-29 12:29N 51°55' E 003°31'0 0.0
2017-Apr-29 12:00N 51°55' E 003°31'0 0.0
2017-Apr-29 11:30N 51°55' E 003°31'0 0.0
2017-Apr-29 03:19N 51°55' E 003°31'0 0.0
2017-Apr-29 03:00N 51°55' E 003°31'0 0.0
2017-Apr-29 02:30N 51°55' E 003°31'0 0.1
2017-Apr-29 02:00N 51°55' E 003°31'0 0.1
2017-Apr-29 01:27N 51°55' E 003°31'0 0.1
2017-Apr-29 01:00N 51°55' E 003°31'0 0.1
2017-Apr-29 00:30N 51°55' E 003°30'0 0.0
2017-Apr-28 13:04N 51°55' E 003°31'0 0.0
2017-Apr-28 12:54N 51°55' E 003°31'0 0.1
2017-Apr-28 12:30N 51°55' E 003°31'0 0.0
2017-Apr-28 12:00N 51°55' E 003°31'0 0.0
2017-Apr-28 11:30N 51°55' E 003°31'0 0.0
2017-Apr-28 11:00N 51°55' E 003°30'0 0.0
2017-Apr-28 10:28N 51°55' E 003°30'0 0.0
2017-Apr-28 06:46N 51°55' E 003°31'0 0.0
2017-Apr-28 00:22N 51°55' E 003°31'1 2.2
2017-Apr-27 23:47N 51°56' E 003°31'10 9.4
2017-Apr-27 22:43N 51°49' E 003°20'210.4
2017-Apr-27 22:29N 51°47' E 003°17'8 9.3
2017-Apr-27 21:36N 51°39' E 003°19'110.3
2017-Apr-27 21:29N 51°38' E 003°20'510.7
2017-Apr-27 21:00N 51°34' E 003°25'5 9.2
2017-Apr-27 20:30N 51°30' E 003°29'510.3
2017-Apr-27 20:00N 51°26' E 003°35'5 9.2
2017-Apr-27 19:30N 51°26' E 003°42'713.4
2017-Apr-27 19:00N 51°20' E 003°49'1 1.5
2017-Apr-27 18:17N 51°19' E 003°49'2 6.3
2017-Apr-27 17:57N 51°17' E 003°50'3 7.1
2017-Apr-27 17:31N 51°14' E 003°49'2 4.8
2017-Apr-27 17:00N 51°12' E 003°48'3 5.8
2017-Apr-27 16:27N 51°09' E 003°47'0 0.0
2017-Apr-27 16:00N 51°09' E 003°47'0 0.0
2017-Apr-27 15:30N 51°09' E 003°47'0 0.0
2017-Apr-27 14:57N 51°09' E 003°47'0 0.0
2017-Apr-27 13:54N 51°09' E 003°47'0 0.0
2017-Apr-27 13:27N 51°09' E 003°47'0 0.0
2017-Apr-27 13:00N 51°09' E 003°47'0 0.0
2017-Apr-27 12:27N 51°09' E 003°47'0 0.0
2017-Apr-27 11:45N 51°09' E 003°47'0 0.0
2017-Apr-27 11:30N 51°09' E 003°47'0 0.0
2017-Apr-27 11:00N 51°09' E 003°47'0 0.0
2017-Apr-27 10:27N 51°09' E 003°47'0 0.0
2017-Apr-27 09:57N 51°09' E 003°47'0 0.0
2017-Apr-27 09:21N 51°09' E 003°47'0 0.0
2017-Apr-27 08:57N 51°09' E 003°47'0 0.0
2017-Apr-27 08:22N 51°09' E 003°47'0 0.0
2017-Apr-27 07:59N 51°09' E 003°47'0 0.0
2017-Apr-27 07:26N 51°09' E 003°47'0 0.0
2017-Apr-27 06:53N 51°09' E 003°47'0 0.0
2017-Apr-27 06:29N 51°09' E 003°47'0 0.0
2017-Apr-27 05:56N 51°09' E 003°47'0 0.0
2017-Apr-27 05:30N 51°09' E 003°47'0 0.0
2017-Apr-27 04:56N 51°09' E 003°47'0 0.0
2017-Apr-27 04:29N 51°09' E 003°47'0 0.0
2017-Apr-27 03:56N 51°09' E 003°47'0 0.0
2017-Apr-27 03:29N 51°09' E 003°47'0 0.0
2017-Apr-27 02:59N 51°09' E 003°47'0 0.0
2017-Apr-27 02:23N 51°09' E 003°47'0 0.0
2017-Apr-27 01:59N 51°09' E 003°47'0 0.0
2017-Apr-27 01:29N 51°09' E 003°47'0 0.0
2017-Apr-27 01:00N 51°09' E 003°47'0 0.0
2017-Apr-27 00:23N 51°09' E 003°47'0 0.0
2017-Apr-26 23:56N 51°09' E 003°47'0 0.0
2017-Apr-26 23:29N 51°09' E 003°47'0 0.0
2017-Apr-26 22:59N 51°09' E 003°47'0 0.0
2017-Apr-26 22:26N 51°09' E 003°47'0 0.0
2017-Apr-26 21:59N 51°09' E 003°47'0 0.0
2017-Apr-26 21:29N 51°09' E 003°47'0 0.0
2017-Apr-26 20:59N 51°09' E 003°47'0 0.0
2017-Apr-26 20:30N 51°09' E 003°47'0 0.0
2017-Apr-26 20:01N 51°09' E 003°47'2 3.4
2017-Apr-26 19:31N 51°10' E 003°48'3 6.3
2017-Apr-26 19:00N 51°14' E 003°48'4 7.3
2017-Apr-26 18:31N 51°17' E 003°50'3 5.6
2017-Apr-26 18:00N 51°20' E 003°49'0 0.1
2017-Apr-26 17:30N 51°20' E 003°49'1 1.6
2017-Apr-26 17:00N 51°21' E 003°49'4 7.6
2017-Apr-26 16:30N 51°23' E 003°44'4 8.5
2017-Apr-26 16:00N 51°26' E 003°40'4 7.5
2017-Apr-26 15:30N 51°26' E 003°34'4 7.9
2017-Apr-26 15:00N 51°29' E 003°30'4 8.6
2017-Apr-26 14:30N 51°32' E 003°25'1110.3
2017-Apr-26 13:28N 51°42' E 003°17'4 9.3
2017-Apr-26 13:00N 51°46' E 003°14'7 0.8
2017-Apr-26 04:04N 51°49' E 003°24'0 0.0
2017-Apr-26 03:49N 51°49' E 003°24'0 0.0
2017-Apr-25 16:34N 51°49' E 003°24'0 0.0
2017-Apr-25 16:28N 51°49' E 003°24'0 0.1
2017-Apr-25 15:58N 51°49' E 003°24'0 0.1
2017-Apr-25 15:28N 51°49' E 003°24'0 0.0
2017-Apr-25 14:58N 51°49' E 003°24'0 0.0
2017-Apr-25 13:58N 51°49' E 003°24'0 0.0
2017-Apr-25 13:28N 51°49' E 003°24'0 0.0
2017-Apr-25 03:22N 51°49' E 003°24'0 0.1
2017-Apr-25 02:58N 51°49' E 003°24'0 0.1
2017-Apr-25 02:28N 51°49' E 003°24'0 0.1
2017-Apr-25 01:58N 51°49' E 003°24'0 0.0
2017-Apr-25 01:31N 51°49' E 003°24'0 0.0
2017-Apr-25 00:58N 51°49' E 003°24'0 0.0
2017-Apr-25 00:28N 51°49' E 003°24'0 0.0
2017-Apr-24 17:34N 51°49' E 003°24'0 0.2
2017-Apr-24 17:28N 51°49' E 003°24'0 0.2
2017-Apr-24 16:58N 51°49' E 003°24'0 0.1
2017-Apr-24 16:28N 51°49' E 003°24'0 0.1
2017-Apr-24 15:58N 51°49' E 003°24'0 0.0
2017-Apr-24 15:31N 51°49' E 003°24'0 0.0
2017-Apr-24 14:58N 51°49' E 003°24'0 0.0
2017-Apr-24 14:28N 51°49' E 003°24'0 0.0
2017-Apr-24 13:28N 51°49' E 003°24'0 0.0
2017-Apr-24 12:52N 51°49' E 003°24'0 0.0
2017-Apr-24 12:22N 51°49' E 003°24'0 0.0
2017-Apr-24 10:55N 51°49' E 003°24'0 0.0
2017-Apr-24 10:28N 51°49' E 003°24'0 0.0
2017-Apr-24 04:58N 51°49' E 003°24'0 0.1
2017-Apr-24 04:16N 51°49' E 003°24'0 0.0
2017-Apr-24 03:49N 51°49' E 003°24'0 0.0
2017-Apr-24 02:49N 51°49' E 003°24'0 0.0
2017-Apr-24 02:28N 51°49' E 003°24'0 0.0
2017-Apr-24 01:49N 51°49' E 003°24'0 0.0
2017-Apr-24 01:25N 51°49' E 003°24'0 0.0
2017-Apr-24 00:58N 51°49' E 003°24'0 0.0
2017-Apr-23 23:37N 51°49' E 003°24'0 0.0
2017-Apr-23 23:28N 51°49' E 003°24'0 0.0
2017-Apr-23 22:58N 51°49' E 003°24'0 0.0
2017-Apr-23 22:22N 51°49' E 003°24'0 0.0
2017-Apr-23 21:52N 51°49' E 003°24'0 0.1
2017-Apr-23 20:46N 51°49' E 003°24'0 0.0
2017-Apr-23 20:28N 51°49' E 003°24'0 0.0
2017-Apr-23 19:07N 51°49' E 003°24'0 0.0
2017-Apr-23 18:49N 51°49' E 003°24'0 0.0
2017-Apr-23 17:34N 51°49' E 003°24'0 0.0
2017-Apr-23 17:31N 51°49' E 003°24'0 0.0
2017-Apr-23 16:58N 51°49' E 003°24'202 7.9
2017-Apr-22 15:15N 54°57' E 005°29'311.0
2017-Apr-22 14:59N 54°59' E 005°32'611.0
2017-Apr-22 14:29N 55°04' E 005°37'1111.3
2017-Apr-22 13:30N 55°13' E 005°46'24910.4
2017-Apr-21 13:34N 58°39' E 010°05'111.2
2017-Apr-21 13:30N 58°39' E 010°06'611.1
2017-Apr-21 12:59N 58°44' E 010°12'510.9
2017-Apr-21 12:31N 58°49' E 010°17'510.6
2017-Apr-21 12:01N 58°53' E 010°23'510.2
2017-Apr-21 11:30N 58°57' E 010°29'5 9.9
2017-Apr-21 11:00N 59°01' E 010°34'5 9.2
2017-Apr-21 10:30N 59°06' E 010°32'510.2
2017-Apr-21 10:01N 59°10' E 010°37'510.6
2017-Apr-21 09:31N 59°15' E 010°35'510.0
2017-Apr-21 09:00N 59°20' E 010°31'0 0.5
2017-Apr-21 08:28N 59°20' E 010°31'0 0.0
2017-Apr-21 07:58N 59°20' E 010°31'0 0.0
2017-Apr-21 07:28N 59°20' E 010°31'0 0.0
2017-Apr-21 06:58N 59°20' E 010°31'0 0.0
2017-Apr-21 06:28N 59°20' E 010°31'0 0.0
2017-Apr-21 05:58N 59°20' E 010°31'0 0.0
2017-Apr-21 05:28N 59°20' E 010°31'0 0.0
2017-Apr-21 04:58N 59°20' E 010°31'0 0.0
2017-Apr-21 04:28N 59°20' E 010°31'0 0.0
2017-Apr-21 03:58N 59°20' E 010°31'0 0.0
2017-Apr-21 03:28N 59°20' E 010°31'0 0.0
2017-Apr-21 02:58N 59°20' E 010°31'0 0.0
2017-Apr-21 02:28N 59°20' E 010°31'0 0.0
2017-Apr-21 01:58N 59°20' E 010°31'0 0.0
2017-Apr-21 01:28N 59°20' E 010°31'0 0.0
2017-Apr-21 00:58N 59°20' E 010°31'0 0.0
2017-Apr-21 00:28N 59°20' E 010°31'0 0.0
2017-Apr-20 23:58N 59°20' E 010°31'0 0.0
2017-Apr-20 23:28N 59°20' E 010°31'0 0.0
2017-Apr-20 22:58N 59°20' E 010°31'0 0.0
2017-Apr-20 22:28N 59°20' E 010°31'0 0.0
2017-Apr-20 21:58N 59°20' E 010°31'0 0.0
2017-Apr-20 21:28N 59°20' E 010°31'0 0.0
2017-Apr-20 20:58N 59°20' E 010°31'0 0.0
2017-Apr-20 20:28N 59°20' E 010°31'0 0.0
2017-Apr-20 19:58N 59°20' E 010°31'0 0.0
2017-Apr-20 19:28N 59°20' E 010°31'0 0.0
2017-Apr-20 18:58N 59°20' E 010°31'0 0.0
2017-Apr-20 18:28N 59°20' E 010°31'0 0.0
2017-Apr-20 17:58N 59°20' E 010°31'0 0.0
2017-Apr-20 17:28N 59°20' E 010°31'0 0.0
2017-Apr-20 16:58N 59°20' E 010°31'0 0.0
2017-Apr-20 16:28N 59°20' E 010°31'0 0.0
2017-Apr-20 15:58N 59°20' E 010°31'0 0.0
2017-Apr-20 15:28N 59°20' E 010°31'0 0.0
2017-Apr-20 14:58N 59°20' E 010°31'0 0.0
2017-Apr-20 13:58N 59°20' E 010°31'0 0.0
2017-Apr-20 13:28N 59°20' E 010°31'0 0.0
2017-Apr-20 12:58N 59°20' E 010°31'0 0.0
2017-Apr-20 12:28N 59°20' E 010°31'0 0.0
2017-Apr-20 11:58N 59°20' E 010°31'0 0.0
2017-Apr-20 11:28N 59°20' E 010°31'0 0.0
2017-Apr-20 11:00N 59°20' E 010°31'0 0.1
2017-Apr-20 10:31N 59°20' E 010°31'1 1.6
2017-Apr-20 09:59N 59°20' E 010°30'0 0.2
2017-Apr-20 09:29N 59°21' E 010°30'0 0.0
2017-Apr-20 08:59N 59°21' E 010°30'0 0.1
2017-Apr-20 08:29N 59°21' E 010°30'0 0.0
2017-Apr-20 07:59N 59°21' E 010°30'0 0.0
2017-Apr-20 07:29N 59°21' E 010°30'0 0.0
2017-Apr-20 06:59N 59°21' E 010°30'0 0.0
2017-Apr-20 06:29N 59°21' E 010°30'0 0.0
2017-Apr-20 05:59N 59°21' E 010°30'0 0.0
2017-Apr-20 05:29N 59°21' E 010°30'0 0.0
2017-Apr-20 04:59N 59°21' E 010°30'0 0.0
2017-Apr-20 04:29N 59°21' E 010°30'0 0.0
2017-Apr-20 03:59N 59°21' E 010°30'0 0.0
2017-Apr-20 03:26N 59°21' E 010°30'0 0.0
2017-Apr-20 02:59N 59°21' E 010°30'0 0.0
2017-Apr-20 02:29N 59°21' E 010°30'0 0.1
2017-Apr-20 01:59N 59°21' E 010°30'0 0.0
2017-Apr-20 01:29N 59°21' E 010°30'0 0.0
2017-Apr-20 00:59N 59°21' E 010°30'0 0.0
2017-Apr-20 00:29N 59°21' E 010°30'0 0.0
2017-Apr-19 23:59N 59°21' E 010°30'0 0.1
2017-Apr-19 23:29N 59°21' E 010°30'0 0.0
2017-Apr-19 22:59N 59°21' E 010°30'0 0.0
2017-Apr-19 22:29N 59°21' E 010°30'0 0.0
2017-Apr-19 21:59N 59°21' E 010°30'0 0.0
2017-Apr-19 21:29N 59°21' E 010°30'0 0.0
2017-Apr-19 20:59N 59°21' E 010°30'0 0.0
2017-Apr-19 20:29N 59°21' E 010°30'0 0.0
2017-Apr-19 19:56N 59°21' E 010°30'0 0.0
2017-Apr-19 19:29N 59°21' E 010°30'0 0.0
2017-Apr-19 18:59N 59°21' E 010°30'0 0.0
2017-Apr-19 18:29N 59°21' E 010°30'0 0.0
2017-Apr-19 17:59N 59°21' E 010°30'0 0.0
2017-Apr-19 17:29N 59°21' E 010°30'0 0.0
2017-Apr-19 16:59N 59°21' E 010°30'0 0.0
2017-Apr-19 16:29N 59°21' E 010°30'0 0.0
2017-Apr-19 15:59N 59°21' E 010°30'0 0.0
2017-Apr-19 15:29N 59°21' E 010°30'0 0.0
2017-Apr-19 14:59N 59°21' E 010°30'  
Track history (hours):
 
Tides and Currents Weather Stations Pressure Air Temp Water Temp Dewpoint Dewpoint Depression Visibility Wind Speed Wind Dir Waves Ship Positions

Colorado Star

Last reported at 2017-Apr-29 14:36 UTC. Time now 2017-Apr-29 17:19 UTC.
Position N 51°55' E 003°31'.

Length 128 m; draft 6.2 m.

Type: Ship. MMSI: 248127000.

Date/timePositionNaut miles runAvg speedWind from/ knotsBaromVisibWave heightAir tempDewpointWater temp
2017-Apr-29 14:36N 51°55' E 003°31'0 0.1
2017-Apr-29 13:03N 51°55' E 003°31'0 0.1
2017-Apr-29 13:00N 51°55' E 003°31'0 0.0
2017-Apr-29 12:29N 51°55' E 003°31'0 0.0
2017-Apr-29 12:00N 51°55' E 003°31'0 0.0
2017-Apr-29 11:30N 51°55' E 003°31'0 0.0
2017-Apr-29 03:19N 51°55' E 003°31'0 0.0
2017-Apr-29 03:00N 51°55' E 003°31'0 0.0
2017-Apr-29 02:30N 51°55' E 003°31'0 0.1
2017-Apr-29 02:00N 51°55' E 003°31'0 0.1
2017-Apr-29 01:27N 51°55' E 003°31'0 0.1
2017-Apr-29 01:00N 51°55' E 003°31'0 0.1
2017-Apr-29 00:30N 51°55' E 003°30'0 0.0
2017-Apr-28 13:04N 51°55' E 003°31'0 0.0
2017-Apr-28 12:54N 51°55' E 003°31'0 0.1
2017-Apr-28 12:30N 51°55' E 003°31'0 0.0
2017-Apr-28 12:00N 51°55' E 003°31'0 0.0
2017-Apr-28 11:30N 51°55' E 003°31'0 0.0
2017-Apr-28 11:00N 51°55' E 003°30'0 0.0
2017-Apr-28 10:28N 51°55' E 003°30'0 0.0
2017-Apr-28 06:46N 51°55' E 003°31'0 0.0
2017-Apr-28 00:22N 51°55' E 003°31'1 2.2
2017-Apr-27 23:47N 51°56' E 003°31'10 9.4
2017-Apr-27 22:43N 51°49' E 003°20'210.4
2017-Apr-27 22:29N 51°47' E 003°17'8 9.3
2017-Apr-27 21:36N 51°39' E 003°19'110.3
2017-Apr-27 21:29N 51°38' E 003°20'510.7
2017-Apr-27 21:00N 51°34' E 003°25'5 9.2
2017-Apr-27 20:30N 51°30' E 003°29'510.3
2017-Apr-27 20:00N 51°26' E 003°35'5 9.2
2017-Apr-27 19:30N 51°26' E 003°42'713.4
2017-Apr-27 19:00N 51°20' E 003°49'1 1.5
2017-Apr-27 18:17N 51°19' E 003°49'2 6.3
2017-Apr-27 17:57N 51°17' E 003°50'3 7.1
2017-Apr-27 17:31N 51°14' E 003°49'2 4.8
2017-Apr-27 17:00N 51°12' E 003°48'3 5.8
2017-Apr-27 16:27N 51°09' E 003°47'0 0.0
2017-Apr-27 16:00N 51°09' E 003°47'0 0.0
2017-Apr-27 15:30N 51°09' E 003°47'0 0.0
2017-Apr-27 14:57N 51°09' E 003°47'0 0.0
2017-Apr-27 13:54N 51°09' E 003°47'0 0.0
2017-Apr-27 13:27N 51°09' E 003°47'0 0.0
2017-Apr-27 13:00N 51°09' E 003°47'0 0.0
2017-Apr-27 12:27N 51°09' E 003°47'0 0.0
2017-Apr-27 11:45N 51°09' E 003°47'0 0.0
2017-Apr-27 11:30N 51°09' E 003°47'0 0.0
2017-Apr-27 11:00N 51°09' E 003°47'0 0.0
2017-Apr-27 10:27N 51°09' E 003°47'0 0.0
2017-Apr-27 09:57N 51°09' E 003°47'0 0.0
2017-Apr-27 09:21N 51°09' E 003°47'0 0.0
2017-Apr-27 08:57N 51°09' E 003°47'0 0.0
2017-Apr-27 08:22N 51°09' E 003°47'0 0.0
2017-Apr-27 07:59N 51°09' E 003°47'0 0.0
2017-Apr-27 07:26N 51°09' E 003°47'0 0.0
2017-Apr-27 06:53N 51°09' E 003°47'0 0.0
2017-Apr-27 06:29N 51°09' E 003°47'0 0.0
2017-Apr-27 05:56N 51°09' E 003°47'0 0.0
2017-Apr-27 05:30N 51°09' E 003°47'0 0.0
2017-Apr-27 04:56N 51°09' E 003°47'0 0.0
2017-Apr-27 04:29N 51°09' E 003°47'0 0.0
2017-Apr-27 03:56N 51°09' E 003°47'0 0.0
2017-Apr-27 03:29N 51°09' E 003°47'0 0.0
2017-Apr-27 02:59N 51°09' E 003°47'0 0.0
2017-Apr-27 02:23N 51°09' E 003°47'0 0.0
2017-Apr-27 01:59N 51°09' E 003°47'0 0.0
2017-Apr-27 01:29N 51°09' E 003°47'0 0.0
2017-Apr-27 01:00N 51°09' E 003°47'0 0.0
2017-Apr-27 00:23N 51°09' E 003°47'0 0.0
2017-Apr-26 23:56N 51°09' E 003°47'0 0.0
2017-Apr-26 23:29N 51°09' E 003°47'0 0.0
2017-Apr-26 22:59N 51°09' E 003°47'0 0.0
2017-Apr-26 22:26N 51°09' E 003°47'0 0.0
2017-Apr-26 21:59N 51°09' E 003°47'0 0.0
2017-Apr-26 21:29N 51°09' E 003°47'0 0.0
2017-Apr-26 20:59N 51°09' E 003°47'0 0.0
2017-Apr-26 20:30N 51°09' E 003°47'0 0.0
2017-Apr-26 20:01N 51°09' E 003°47'2 3.4
2017-Apr-26 19:31N 51°10' E 003°48'3 6.3
2017-Apr-26 19:00N 51°14' E 003°48'4 7.3
2017-Apr-26 18:31N 51°17' E 003°50'3 5.6
2017-Apr-26 18:00N 51°20' E 003°49'0 0.1
2017-Apr-26 17:30N 51°20' E 003°49'1 1.6
2017-Apr-26 17:00N 51°21' E 003°49'4 7.6
2017-Apr-26 16:30N 51°23' E 003°44'4 8.5
2017-Apr-26 16:00N 51°26' E 003°40'4 7.5
2017-Apr-26 15:30N 51°26' E 003°34'4 7.9
2017-Apr-26 15:00N 51°29' E 003°30'4 8.6
2017-Apr-26 14:30N 51°32' E 003°25'1110.3
2017-Apr-26 13:28N 51°42' E 003°17'4 9.3
2017-Apr-26 13:00N 51°46' E 003°14'7 0.8
2017-Apr-26 04:04N 51°49' E 003°24'0 0.0
2017-Apr-26 03:49N 51°49' E 003°24'0 0.0
2017-Apr-25 16:34N 51°49' E 003°24'0 0.0
2017-Apr-25 16:28N 51°49' E 003°24'0 0.1
2017-Apr-25 15:58N 51°49' E 003°24'0 0.1
2017-Apr-25 15:28N 51°49' E 003°24'0 0.0
2017-Apr-25 14:58N 51°49' E 003°24'0 0.0
2017-Apr-25 13:58N 51°49' E 003°24'0 0.0
2017-Apr-25 13:28N 51°49' E 003°24'0 0.0
2017-Apr-25 03:22N 51°49' E 003°24'0 0.1
2017-Apr-25 02:58N 51°49' E 003°24'0 0.1
2017-Apr-25 02:28N 51°49' E 003°24'0 0.1
2017-Apr-25 01:58N 51°49' E 003°24'0 0.0
2017-Apr-25 01:31N 51°49' E 003°24'0 0.0
2017-Apr-25 00:58N 51°49' E 003°24'0 0.0
2017-Apr-25 00:28N 51°49' E 003°24'0 0.0
2017-Apr-24 17:34N 51°49' E 003°24'0 0.2
2017-Apr-24 17:28N 51°49' E 003°24'0 0.2
2017-Apr-24 16:58N 51°49' E 003°24'0 0.1
2017-Apr-24 16:28N 51°49' E 003°24'0 0.1
2017-Apr-24 15:58N 51°49' E 003°24'0 0.0
2017-Apr-24 15:31N 51°49' E 003°24'0 0.0
2017-Apr-24 14:58N 51°49' E 003°24'0 0.0
2017-Apr-24 14:28N 51°49' E 003°24'0 0.0
2017-Apr-24 13:28N 51°49' E 003°24'0 0.0
2017-Apr-24 12:52N 51°49' E 003°24'0 0.0
2017-Apr-24 12:22N 51°49' E 003°24'0 0.0
2017-Apr-24 10:55N 51°49' E 003°24'0 0.0
2017-Apr-24 10:28N 51°49' E 003°24'0 0.0
2017-Apr-24 04:58N 51°49' E 003°24'0 0.1
2017-Apr-24 04:16N 51°49' E 003°24'0 0.0
2017-Apr-24 03:49N 51°49' E 003°24'0 0.0
2017-Apr-24 02:49N 51°49' E 003°24'0 0.0
2017-Apr-24 02:28N 51°49' E 003°24'0 0.0
2017-Apr-24 01:49N 51°49' E 003°24'0 0.0
2017-Apr-24 01:25N 51°49' E 003°24'0 0.0
2017-Apr-24 00:58N 51°49' E 003°24'0 0.0
2017-Apr-23 23:37N 51°49' E 003°24'0 0.0
2017-Apr-23 23:28N 51°49' E 003°24'0 0.0
2017-Apr-23 22:58N 51°49' E 003°24'0 0.0
2017-Apr-23 22:22N 51°49' E 003°24'0 0.0
2017-Apr-23 21:52N 51°49' E 003°24'0 0.1
2017-Apr-23 20:46N 51°49' E 003°24'0 0.0
2017-Apr-23 20:28N 51°49' E 003°24'0 0.0
2017-Apr-23 19:07N 51°49' E 003°24'0 0.0
2017-Apr-23 18:49N 51°49' E 003°24'0 0.0
2017-Apr-23 17:34N 51°49' E 003°24'0 0.0
2017-Apr-23 17:31N 51°49' E 003°24'0 0.0
2017-Apr-23 16:58N 51°49' E 003°24'202 7.9
2017-Apr-22 15:15N 54°57' E 005°29'311.0
2017-Apr-22 14:59N 54°59' E 005°32'611.0
2017-Apr-22 14:29N 55°04' E 005°37'1111.3
2017-Apr-22 13:30N 55°13' E 005°46'24910.4
2017-Apr-21 13:34N 58°39' E 010°05'111.2
2017-Apr-21 13:30N 58°39' E 010°06'611.1
2017-Apr-21 12:59N 58°44' E 010°12'510.9
2017-Apr-21 12:31N 58°49' E 010°17'510.6
2017-Apr-21 12:01N 58°53' E 010°23'510.2
2017-Apr-21 11:30N 58°57' E 010°29'5 9.9
2017-Apr-21 11:00N 59°01' E 010°34'5 9.2
2017-Apr-21 10:30N 59°06' E 010°32'510.2
2017-Apr-21 10:01N 59°10' E 010°37'510.6
2017-Apr-21 09:31N 59°15' E 010°35'510.0
2017-Apr-21 09:00N 59°20' E 010°31'0 0.5
2017-Apr-21 08:28N 59°20' E 010°31'0 0.0
2017-Apr-21 07:58N 59°20' E 010°31'0 0.0
2017-Apr-21 07:28N 59°20' E 010°31'0 0.0
2017-Apr-21 06:58N 59°20' E 010°31'0 0.0
2017-Apr-21 06:28N 59°20' E 010°31'0 0.0
2017-Apr-21 05:58N 59°20' E 010°31'0 0.0
2017-Apr-21 05:28N 59°20' E 010°31'0 0.0
2017-Apr-21 04:58N 59°20' E 010°31'0 0.0
2017-Apr-21 04:28N 59°20' E 010°31'0 0.0
2017-Apr-21 03:58N 59°20' E 010°31'0 0.0
2017-Apr-21 03:28N 59°20' E 010°31'0 0.0
2017-Apr-21 02:58N 59°20' E 010°31'0 0.0
2017-Apr-21 02:28N 59°20' E 010°31'0 0.0
2017-Apr-21 01:58N 59°20' E 010°31'0 0.0
2017-Apr-21 01:28N 59°20' E 010°31'0 0.0
2017-Apr-21 00:58N 59°20' E 010°31'0 0.0
2017-Apr-21 00:28N 59°20' E 010°31'0 0.0
2017-Apr-20 23:58N 59°20' E 010°31'0 0.0
2017-Apr-20 23:28N 59°20' E 010°31'0 0.0
2017-Apr-20 22:58N 59°20' E 010°31'0 0.0
2017-Apr-20 22:28N 59°20' E 010°31'0 0.0
2017-Apr-20 21:58N 59°20' E 010°31'0 0.0
2017-Apr-20 21:28N 59°20' E 010°31'0 0.0
2017-Apr-20 20:58N 59°20' E 010°31'0 0.0
2017-Apr-20 20:28N 59°20' E 010°31'0 0.0
2017-Apr-20 19:58N 59°20' E 010°31'0 0.0
2017-Apr-20 19:28N 59°20' E 010°31'0 0.0
2017-Apr-20 18:58N 59°20' E 010°31'0 0.0
2017-Apr-20 18:28N 59°20' E 010°31'0 0.0
2017-Apr-20 17:58N 59°20' E 010°31'0 0.0
2017-Apr-20 17:28N 59°20' E 010°31'0 0.0
2017-Apr-20 16:58N 59°20' E 010°31'0 0.0
2017-Apr-20 16:28N 59°20' E 010°31'0 0.0
2017-Apr-20 15:58N 59°20' E 010°31'0 0.0
2017-Apr-20 15:28N 59°20' E 010°31'0 0.0
2017-Apr-20 14:58N 59°20' E 010°31'0 0.0
2017-Apr-20 13:58N 59°20' E 010°31'0 0.0
2017-Apr-20 13:28N 59°20' E 010°31'0 0.0
2017-Apr-20 12:58N 59°20' E 010°31'0 0.0
2017-Apr-20 12:28N 59°20' E 010°31'0 0.0
2017-Apr-20 11:58N 59°20' E 010°31'0 0.0
2017-Apr-20 11:28N 59°20' E 010°31'0 0.0
2017-Apr-20 11:00N 59°20' E 010°31'0 0.1
2017-Apr-20 10:31N 59°20' E 010°31'1 1.6
2017-Apr-20 09:59N 59°20' E 010°30'0 0.2
2017-Apr-20 09:29N 59°21' E 010°30'0 0.0
2017-Apr-20 08:59N 59°21' E 010°30'0 0.1
2017-Apr-20 08:29N 59°21' E 010°30'0 0.0
2017-Apr-20 07:59N 59°21' E 010°30'0 0.0
2017-Apr-20 07:29N 59°21' E 010°30'0 0.0
2017-Apr-20 06:59N 59°21' E 010°30'0 0.0
2017-Apr-20 06:29N 59°21' E 010°30'0 0.0
2017-Apr-20 05:59N 59°21' E 010°30'0 0.0
2017-Apr-20 05:29N 59°21' E 010°30'0 0.0
2017-Apr-20 04:59N 59°21' E 010°30'0 0.0
2017-Apr-20 04:29N 59°21' E 010°30'0 0.0
2017-Apr-20 03:59N 59°21' E 010°30'0 0.0
2017-Apr-20 03:26N 59°21' E 010°30'0 0.0
2017-Apr-20 02:59N 59°21' E 010°30'0 0.0
2017-Apr-20 02:29N 59°21' E 010°30'0 0.1
2017-Apr-20 01:59N 59°21' E 010°30'0 0.0
2017-Apr-20 01:29N 59°21' E 010°30'0 0.0
2017-Apr-20 00:59N 59°21' E 010°30'0 0.0
2017-Apr-20 00:29N 59°21' E 010°30'0 0.0
2017-Apr-19 23:59N 59°21' E 010°30'0 0.1
2017-Apr-19 23:29N 59°21' E 010°30'0 0.0
2017-Apr-19 22:59N 59°21' E 010°30'0 0.0
2017-Apr-19 22:29N 59°21' E 010°30'0 0.0
2017-Apr-19 21:59N 59°21' E 010°30'0 0.0
2017-Apr-19 21:29N 59°21' E 010°30'0 0.0
2017-Apr-19 20:59N 59°21' E 010°30'0 0.0
2017-Apr-19 20:29N 59°21' E 010°30'0 0.0
2017-Apr-19 19:56N 59°21' E 010°30'0 0.0
2017-Apr-19 19:29N 59°21' E 010°30'0 0.0
2017-Apr-19 18:59N 59°21' E 010°30'0 0.0
2017-Apr-19 18:29N 59°21' E 010°30'0 0.0
2017-Apr-19 17:59N 59°21' E 010°30'0 0.0
2017-Apr-19 17:29N 59°21' E 010°30'0 0.0
2017-Apr-19 16:59N 59°21' E 010°30'0 0.0
2017-Apr-19 16:29N 59°21' E 010°30'0 0.0
2017-Apr-19 15:59N 59°21' E 010°30'0 0.0
2017-Apr-19 15:29N 59°21' E 010°30'0 0.0
2017-Apr-19 14:59N 59°21' E 010°30'  

Dump ship's entire track history